Time,TemperatureF,DewpointF,PressureIn,WindDirection,WindDirectionDegrees,WindSpeedMPH,WindSpeedGustMPH,Humidity,HourlyPrecipIn,Conditions,Clouds,dailyrainin,SoftwareType,DateUTC
2013-09-05 00:06:00,59.0,53.8,29.80,WNW,299,2.0,2.0,83,0.00,,,0.00,Wunderground v.1.15,2013-09-05 04:06:00,
2013-09-05 00:16:00,58.9,53.7,29.79,West,275,1.0,2.0,83,0.00,,,0.00,Wunderground v.1.15,2013-09-05 04:16:00,
2013-09-05 00:26:00,58.9,53.7,29.79,West,275,1.0,3.0,83,0.00,,,0.00,Wunderground v.1.15,2013-09-05 04:26:00,
2013-09-05 00:36:00,58.9,53.7,29.79,WNW,291,3.0,5.0,83,0.00,,,0.00,Wunderground v.1.15,2013-09-05 04:36:00,
2013-09-05 00:46:00,58.9,53.4,29.78,WNW,288,3.0,3.0,82,0.00,,,0.00,Wunderground v.1.15,2013-09-05 04:46:00,
2013-09-05 00:56:00,58.6,53.8,29.78,WNW,291,1.0,3.0,84,0.00,,,0.00,Wunderground v.1.15,2013-09-05 04:56:00,
2013-09-05 01:06:00,58.6,53.8,29.78,WNW,291,0.0,0.0,84,0.00,,,0.00,Wunderground v.1.15,2013-09-05 05:06:00,
2013-09-05 01:16:00,58.4,53.6,29.78,WNW,291,0.0,0.0,84,0.00,,,0.00,Wunderground v.1.15,2013-09-05 05:16:00,
2013-09-05 01:26:00,58.6,53.8,29.78,WNW,291,0.0,0.0,84,0.00,,,0.00,Wunderground v.1.15,2013-09-05 05:26:00,
2013-09-05 02:06:00,57.5,54.9,29.78,WNW,291,0.0,0.0,91,0.00,,,0.00,Wunderground v.1.15,2013-09-05 06:06:00,
2013-09-05 02:26:00,57.3,54.7,29.77,WNW,291,0.0,0.0,91,0.00,,,0.00,Wunderground v.1.15,2013-09-05 06:26:00,
2013-09-05 02:36:00,57.3,54.7,29.77,WNW,291,0.0,0.0,91,0.00,,,0.00,Wunderground v.1.15,2013-09-05 06:36:00,
2013-09-05 02:46:00,57.2,55.2,29.78,WNW,291,0.0,0.0,93,0.00,,,0.01,Wunderground v.1.15,2013-09-05 06:46:00,
2013-09-05 03:06:00,56.7,55.3,29.77,WNW,291,1.0,1.0,95,0.00,,,0.01,Wunderground v.1.15,2013-09-05 07:06:00,
2013-09-05 03:16:00,56.5,55.1,29.77,WNW,291,1.0,3.0,95,0.00,,,0.01,Wunderground v.1.15,2013-09-05 07:16:00,
2013-09-05 03:26:00,55.7,53.7,29.77,WSW,248,2.0,2.0,93,0.00,,,0.01,Wunderground v.1.15,2013-09-05 07:26:00,
2013-09-05 03:46:00,55.3,52.4,29.78,WSW,257,3.0,3.0,90,0.00,,,0.01,Wunderground v.1.15,2013-09-05 07:46:00,
2013-09-05 03:56:00,55.3,51.5,29.78,WSW,250,2.0,3.0,87,0.00,,,0.01,Wunderground v.1.15,2013-09-05 07:56:00,
2013-09-05 04:26:00,55.4,52.5,29.79,WSW,250,2.0,2.0,90,0.00,,,0.02,Wunderground v.1.15,2013-09-05 08:26:00,
2013-09-05 04:36:00,55.1,52.5,29.78,WSW,250,1.0,2.0,91,0.00,,,0.02,Wunderground v.1.15,2013-09-05 08:36:00,
2013-09-05 04:46:00,54.8,52.5,29.79,WSW,250,1.0,2.0,92,0.00,,,0.02,Wunderground v.1.15,2013-09-05 08:46:00,
2013-09-05 04:56:00,54.7,52.7,29.79,WSW,250,1.0,2.0,93,0.00,,,0.02,Wunderground v.1.15,2013-09-05 08:56:00,
2013-09-05 05:06:00,54.5,52.8,29.79,WSW,250,1.0,1.0,94,0.00,,,0.02,Wunderground v.1.15,2013-09-05 09:06:00,
2013-09-05 05:16:00,54.5,53.1,29.80,WSW,250,0.0,0.0,95,0.00,,,0.02,Wunderground v.1.15,2013-09-05 09:16:00,
2013-09-05 05:26:00,54.5,52.2,29.80,WSW,250,0.0,0.0,92,0.00,,,0.02,Wunderground v.1.15,2013-09-05 09:26:00,
2013-09-05 05:36:00,54.8,52.5,29.80,WSW,250,0.0,0.0,92,0.00,,,0.02,Wunderground v.1.15,2013-09-05 09:36:00,
2013-09-05 05:46:00,54.7,52.4,29.80,WSW,250,0.0,0.0,92,0.00,,,0.02,Wunderground v.1.15,2013-09-05 09:46:00,
2013-09-05 05:56:00,54.5,52.5,29.80,WSW,250,0.0,0.0,93,0.00,,,0.02,Wunderground v.1.15,2013-09-05 09:56:00,
2013-09-05 06:06:00,54.4,52.7,29.80,WSW,250,0.0,0.0,94,0.00,,,0.02,Wunderground v.1.15,2013-09-05 10:06:00,
2013-09-05 06:26:00,54.5,52.5,29.81,NE,55,1.0,1.0,93,0.00,,,0.02,Wunderground v.1.15,2013-09-05 10:26:00,
2013-09-05 06:36:00,54.7,52.4,29.83,WSW,257,2.0,2.0,92,0.00,,,0.02,Wunderground v.1.15,2013-09-05 10:36:00,
2013-09-05 07:06:00,54.1,52.7,29.85,WSW,257,0.0,0.0,95,0.00,,,0.02,Wunderground v.1.15,2013-09-05 11:06:00,
2013-09-05 07:26:00,54.4,50.6,29.85,West,271,1.0,1.0,87,0.00,,,0.02,Wunderground v.1.15,2013-09-05 11:26:00,
2013-09-05 07:46:00,54.4,52.1,29.86,West,271,0.0,0.0,92,0.00,,,0.02,Wunderground v.1.15,2013-09-05 11:46:00,
2013-09-05 07:56:00,53.9,48.2,29.86,NNW,345,2.0,3.0,81,0.00,,,0.02,Wunderground v.1.15,2013-09-05 11:56:00,
2013-09-05 08:06:00,54.1,47.4,29.87,WNW,287,2.0,2.0,78,0.00,,,0.02,Wunderground v.1.15,2013-09-05 12:06:00,
2013-09-05 08:26:00,54.1,47.7,29.87,NW,311,1.0,1.0,79,0.00,,,0.02,Wunderground v.1.15,2013-09-05 12:26:00,
2013-09-05 08:36:00,53.9,47.2,29.87,NW,311,1.0,1.0,78,0.00,,,0.02,Wunderground v.1.15,2013-09-05 12:36:00,
2013-09-05 08:56:00,54.5,47.4,29.87,NW,311,1.0,1.0,77,0.00,,,0.02,Wunderground v.1.15,2013-09-05 12:56:00,
2013-09-05 09:26:00,54.8,44.8,29.89,NNW,327,2.0,3.0,69,0.00,,,0.02,Wunderground v.1.15,2013-09-05 13:26:00,
2013-09-05 09:46:00,55.7,46.1,29.89,NW,314,1.0,3.0,70,0.00,,,0.02,Wunderground v.1.15,2013-09-05 13:46:00,
2013-09-05 09:56:00,56.0,45.6,29.89,NW,313,1.0,2.0,68,0.00,,,0.02,Wunderground v.1.15,2013-09-05 13:56:00,
2013-09-05 10:06:00,56.7,45.5,29.89,NW,311,2.0,2.0,66,0.00,,,0.02,Wunderground v.1.15,2013-09-05 14:06:00,
2013-09-05 10:36:00,60.2,36.4,29.89,WSW,257,4.0,5.0,41,0.00,,,0.02,Wunderground v.1.15,2013-09-05 14:36:00,
2013-09-05 10:46:00,59.9,36.7,29.89,WNW,292,6.0,9.0,42,0.00,,,0.02,Wunderground v.1.15,2013-09-05 14:46:00,
2013-09-05 10:56:00,60.7,39.2,29.89,West,275,4.0,6.0,45,0.00,,,0.02,Wunderground v.1.15,2013-09-05 14:56:00,
2013-09-05 11:26:00,61.8,36.6,29.89,NW,314,3.0,4.0,39,0.00,,,0.02,Wunderground v.1.15,2013-09-05 15:26:00,
2013-09-05 11:56:00,60.2,37.0,29.89,West,276,8.0,13.0,42,0.00,,,0.02,Wunderground v.1.15,2013-09-05 15:56:00,
2013-09-05 12:06:00,60.4,37.8,29.90,NNE,30,8.0,8.0,43,0.00,,,0.02,Wunderground v.1.15,2013-09-05 16:06:00,
2013-09-05 12:16:00,60.7,37.5,29.90,WNW,297,7.0,7.0,42,0.00,,,0.02,Wunderground v.1.15,2013-09-05 16:16:00,
2013-09-05 12:56:00,61.5,37.6,29.90,WSW,255,5.0,5.0,41,0.00,,,0.02,Wunderground v.1.15,2013-09-05 16:56:00,
2013-09-05 13:16:00,62.9,38.8,29.89,WSW,251,7.0,7.0,41,0.00,,,0.02,Wunderground v.1.15,2013-09-05 17:16:00,
2013-09-05 13:26:00,62.6,37.9,29.89,NW,307,7.0,13.0,40,0.00,,,0.02,Wunderground v.1.15,2013-09-05 17:26:00,
2013-09-05 13:46:00,62.4,34.4,29.89,WNW,286,7.0,9.0,35,0.00,,,0.02,Wunderground v.1.15,2013-09-05 17:46:00,
2013-09-05 14:06:00,63.2,34.3,29.90,ESE,119,8.0,8.0,34,0.00,,,0.02,Wunderground v.1.15,2013-09-05 18:06:00,
2013-09-05 14:16:00,63.2,35.8,29.89,NW,311,6.0,6.0,36,0.00,,,0.02,Wunderground v.1.15,2013-09-05 18:16:00,
2013-09-05 14:26:00,63.4,40.5,29.89,WSW,251,6.0,6.0,43,0.00,,,0.02,Wunderground v.1.15,2013-09-05 18:26:00,
2013-09-05 14:36:00,63.1,35.7,29.90,West,275,8.0,10.0,36,0.00,,,0.02,Wunderground v.1.15,2013-09-05 18:36:00,
2013-09-05 14:56:00,61.3,35.5,29.90,NW,321,10.0,10.0,38,0.00,,,0.02,Wunderground v.1.15,2013-09-05 18:56:00,
2013-09-05 15:06:00,62.9,35.5,29.90,WNW,296,6.0,9.0,36,0.00,,,0.02,Wunderground v.1.15,2013-09-05 19:06:00,
2013-09-05 15:16:00,61.6,37.7,29.91,WNW,298,7.0,7.0,41,0.00,,,0.02,Wunderground v.1.15,2013-09-05 19:16:00,
2013-09-05 15:26:00,62.7,35.3,29.91,WNW,286,5.0,5.0,36,0.00,,,0.02,Wunderground v.1.15,2013-09-05 19:26:00,
2013-09-05 15:46:00,63.1,34.3,29.92,North,5,5.0,7.0,34,0.00,,,0.02,Wunderground v.1.15,2013-09-05 19:46:00,
2013-09-05 16:06:00,62.9,36.9,29.93,West,275,5.0,5.0,38,0.00,,,0.02,Wunderground v.1.15,2013-09-05 20:06:00,
2013-09-05 16:16:00,61.8,37.2,29.93,WNW,285,4.0,4.0,40,0.00,,,0.02,Wunderground v.1.15,2013-09-05 20:16:00,
2013-09-05 16:26:00,60.7,35.6,29.93,NNE,16,6.0,6.0,39,0.00,,,0.02,Wunderground v.1.15,2013-09-05 20:26:00,
2013-09-05 16:56:00,59.2,36.7,29.94,WNW,295,4.0,4.0,43,0.00,,,0.02,Wunderground v.1.15,2013-09-05 20:56:00,
2013-09-05 17:06:00,59.9,37.3,29.94,West,273,6.0,6.0,43,0.00,,,0.02,Wunderground v.1.15,2013-09-05 21:06:00,
2013-09-05 17:16:00,60.1,35.7,29.94,NW,324,5.0,11.0,40,0.00,,,0.02,Wunderground v.1.15,2013-09-05 21:16:00,
2013-09-05 17:36:00,59.3,36.2,29.95,WNW,298,7.0,7.0,42,0.00,,,0.02,Wunderground v.1.15,2013-09-05 21:36:00,
2013-09-05 17:46:00,59.3,35.0,29.95,West,269,6.0,7.0,40,0.00,,,0.02,Wunderground v.1.15,2013-09-05 21:46:00,
2013-09-05 17:56:00,59.2,37.3,29.95,West,275,5.0,8.0,44,0.00,,,0.02,Wunderground v.1.15,2013-09-05 21:56:00,
2013-09-05 18:16:00,58.7,40.1,29.96,WNW,302,4.0,4.0,50,0.00,,,0.02,Wunderground v.1.15,2013-09-05 22:16:00,
2013-09-05 18:26:00,58.0,39.5,29.96,WNW,296,4.0,4.0,50,0.00,,,0.02,Wunderground v.1.15,2013-09-05 22:26:00,
2013-09-05 18:36:00,57.2,37.7,29.97,West,263,4.0,6.0,48,0.00,,,0.02,Wunderground v.1.15,2013-09-05 22:36:00,
2013-09-05 18:46:00,56.6,36.0,29.98,NW,309,7.0,7.0,46,0.00,,,0.02,Wunderground v.1.15,2013-09-05 22:46:00,
2013-09-05 18:56:00,56.2,36.2,29.98,WNW,283,7.0,7.0,47,0.00,,,0.02,Wunderground v.1.15,2013-09-05 22:56:00,
2013-09-05 19:06:00,55.4,37.6,29.98,West,275,5.0,5.0,51,0.00,,,0.02,Wunderground v.1.15,2013-09-05 23:06:00,
2013-09-05 19:16:00,55.0,37.7,29.99,WNW,290,5.0,5.0,52,0.00,,,0.02,Wunderground v.1.15,2013-09-05 23:16:00,
2013-09-05 19:26:00,54.5,37.7,29.99,WSW,245,4.0,4.0,53,0.00,,,0.02,Wunderground v.1.15,2013-09-05 23:26:00,
2013-09-05 19:46:00,53.9,38.1,30.01,WNW,300,4.0,5.0,55,0.00,,,0.02,Wunderground v.1.15,2013-09-05 23:46:00,
2013-09-05 20:06:00,53.8,38.0,30.01,West,269,3.0,3.0,55,0.00,,,0.02,Wunderground v.1.15,2013-09-06 00:06:00,
2013-09-05 20:16:00,53.6,38.3,30.02,West,269,3.0,3.0,56,0.00,,,0.02,Wunderground v.1.15,2013-09-06 00:16:00,
2013-09-05 20:26:00,52.8,37.1,30.02,West,270,2.0,2.0,55,0.00,,,0.02,Wunderground v.1.15,2013-09-06 00:26:00,
2013-09-05 21:16:00,51.6,35.0,30.04,NW,306,6.0,6.0,53,0.00,,,0.02,Wunderground v.1.15,2013-09-06 01:16:00,
2013-09-05 21:36:00,51.4,34.3,30.04,NNE,18,5.0,5.0,52,0.00,,,0.02,Wunderground v.1.15,2013-09-06 01:36:00,
2013-09-05 21:46:00,51.7,33.6,30.05,West,280,6.0,6.0,50,0.00,,,0.02,Wunderground v.1.15,2013-09-06 01:46:00,
2013-09-05 21:56:00,51.1,34.1,30.05,WNW,291,5.0,5.0,52,0.00,,,0.02,Wunderground v.1.15,2013-09-06 01:56:00,
2013-09-05 22:16:00,50.5,35.4,30.06,West,271,1.0,2.0,56,0.00,,,0.02,Wunderground v.1.15,2013-09-06 02:16:00,
2013-09-05 22:36:00,49.6,35.4,30.06,WNW,285,1.0,4.0,58,0.00,,,0.02,Wunderground v.1.15,2013-09-06 02:36:00,
2013-09-05 22:46:00,49.8,35.2,30.06,West,275,2.0,2.0,57,0.00,,,0.02,Wunderground v.1.15,2013-09-06 02:46:00,
2013-09-05 22:56:00,48.8,37.9,30.06,NE,51,1.0,1.0,66,0.00,,,0.02,Wunderground v.1.15,2013-09-06 02:56:00,
2013-09-05 23:06:00,48.2,37.0,30.07,NE,51,0.0,0.0,65,0.00,,,0.02,Wunderground v.1.15,2013-09-06 03:06:00,
2013-09-05 23:16:00,47.7,36.1,30.07,NE,51,1.0,1.0,64,0.00,,,0.02,Wunderground v.1.15,2013-09-06 03:16:00,
2013-09-05 23:26:00,47.6,35.6,30.07,NE,51,0.0,0.0,63,0.00,,,0.02,Wunderground v.1.15,2013-09-06 03:26:00,
2013-09-05 23:36:00,48.5,36.1,30.07,NE,51,0.0,0.0,62,0.00,,,0.02,Wunderground v.1.15,2013-09-06 03:36:00,